Terminal Aerodrome Forecast
Issued by NWS Billings, MT

Home | Current Version | Previous Version | Text Only | Print | Product List | Glossary Off
Versions: 1 2 3 4 5 6 7 8 9 10 11 12 13 14 15 16 17 18 19 20 21 22 23 24 25 26 27 28

000
FTUS45 KBYZ 250540
TAFMLS
TAF
KMLS 250540Z 2506/2606 35009KT P6SM -SHRA SCT025 OVC040
     FM251600 33009KT P6SM VCSH SCT025 OVC050
     FM251800 32009KT P6SM VCTS BKN050CB
     FM260300 28007KT P6SM SCT070=

USA.gov is the U.S. government's official web portal to all federal, state and local government web resources and services.